Time;durP1;ratioP1;P1;durP2;ratioP2;P2;SDS_P1;SDS_P2;PMS_P1;PMS_P2;Temp;Humidity;BMP_temperature;BMP_pressure;BME280_temperature;BME280_humidity;BME280_pressure;Samples;Min_cycle;Max_cycle;Signal;HPM_P1;HPM_P2
2022/03/18 00:01:44;;;;;;;7.78;3.10;;;4.30;99.90;;;;;;4878044;29;20502;-89
2022/03/18 00:04:11;;;;;;;7.47;3.42;;;4.30;99.90;;;;;;4878933;29;20052;-89
2022/03/18 00:06:36;;;;;;;6.53;3.22;;;4.20;99.90;;;;;;4862054;29;20033;-88
2022/03/18 00:09:02;;;;;;;7.63;3.22;;;4.20;99.90;;;;;;4877864;29;20045;-88
2022/03/18 00:11:28;;;;;;;5.95;3.05;;;4.20;99.90;;;;;;4879514;29;20072;-88
2022/03/18 00:13:55;;;;;;;5.93;3.20;;;4.20;99.90;;;;;;4878737;29;20051;-89
2022/03/18 00:16:21;;;;;;;7.70;3.28;;;4.20;99.90;;;;;;4879498;29;20033;-88
2022/03/18 00:18:46;;;;;;;5.90;3.13;;;4.20;99.90;;;;;;4879387;29;20045;-88
2022/03/18 00:21:13;;;;;;;7.72;3.65;;;4.10;99.90;;;;;;4879624;29;20033;-88
2022/03/18 00:23:38;;;;;;;8.95;3.50;;;4.10;99.90;;;;;;4878679;29;20044;-89
2022/03/18 00:26:04;;;;;;;6.20;3.90;;;4.00;99.90;;;;;;4894611;29;20124;-89
2022/03/18 00:28:30;;;;;;;5.60;3.05;;;3.90;99.90;;;;;;4878755;29;20029;-88
2022/03/18 00:30:57;;;;;;;6.00;3.17;;;4.00;99.90;;;;;;4879441;29;20037;-89
2022/03/18 00:33:23;;;;;;;6.18;2.95;;;3.90;99.90;;;;;;4879419;29;20090;-87
2022/03/18 00:35:48;;;;;;;7.32;3.50;;;3.90;99.90;;;;;;4899634;29;20394;-88
2022/03/18 00:38:14;;;;;;;7.07;3.17;;;3.80;99.90;;;;;;4898878;29;20496;-87
2022/03/18 00:40:40;;;;;;;8.75;3.22;;;3.80;99.90;;;;;;4898353;29;20383;-87
2022/03/18 00:43:06;;;;;;;6.60;3.20;;;3.80;99.90;;;;;;4898844;29;20063;-87
2022/03/18 00:45:32;;;;;;;8.75;3.63;;;3.80;99.90;;;;;;4900843;29;20368;-88
2022/03/18 00:53:26;;;;;;;6.20;3.03;;;3.60;99.90;;;;;;4900699;29;20105;-87
2022/03/18 00:55:52;;;;;;;4.40;2.58;;;3.60;99.90;;;;;;4899041;29;20040;-88
2022/03/18 00:58:17;;;;;;;9.90;2.75;;;3.50;99.90;;;;;;4899119;29;20064;-89
2022/03/18 01:00:43;;;;;;;6.32;2.78;;;3.60;99.90;;;;;;4900596;29;20041;-89
2022/03/18 01:03:10;;;;;;;5.55;2.65;;;3.50;99.90;;;;;;4899403;29;20048;-87
2022/03/18 01:05:36;;;;;;;4.30;2.05;;;3.60;99.90;;;;;;4899751;29;20497;-87
2022/03/18 01:08:01;;;;;;;4.53;2.40;;;3.60;99.90;;;;;;4898742;29;20040;-88
2022/03/18 01:10:27;;;;;;;7.13;2.78;;;3.60;99.90;;;;;;4902045;29;20052;-88
2022/03/18 01:12:52;;;;;;;5.40;2.53;;;3.60;99.90;;;;;;4902888;29;20032;-88
2022/03/18 01:15:18;;;;;;;6.65;2.90;;;3.50;99.90;;;;;;4902049;29;20085;-88
2022/03/18 01:17:44;;;;;;;7.88;2.53;;;3.50;99.90;;;;;;4902342;29;20180;-88
2022/03/18 01:20:09;;;;;;;4.60;2.13;;;3.50;99.90;;;;;;4902150;29;20031;-88
2022/03/18 01:22:36;;;;;;;4.28;2.03;;;3.50;99.90;;;;;;4887129;29;20043;-88
2022/03/18 01:25:02;;;;;;;6.05;2.92;;;3.50;99.90;;;;;;4902353;29;20123;-89
2022/03/18 01:27:28;;;;;;;7.20;2.65;;;3.50;99.90;;;;;;4902306;29;20037;-88
2022/03/18 01:29:54;;;;;;;6.53;3.00;;;3.50;99.90;;;;;;4886749;29;20028;-88
2022/03/18 01:32:20;;;;;;;7.10;3.10;;;3.60;99.90;;;;;;4902182;29;20394;-88
2022/03/18 01:34:45;;;;;;;5.07;2.78;;;3.60;99.90;;;;;;4902172;29;20063;-88
2022/03/18 01:37:11;;;;;;;6.95;3.22;;;3.50;99.90;;;;;;4902000;29;20048;-88
2022/03/18 01:39:37;;;;;;;5.90;3.05;;;3.50;99.90;;;;;;4902068;29;20096;-87
2022/03/18 01:42:03;;;;;;;7.57;3.55;;;3.50;99.90;;;;;;4901787;29;20032;-87
2022/03/18 01:44:28;;;;;;;6.40;2.70;;;3.50;99.90;;;;;;4902004;29;20087;-86
2022/03/18 01:46:54;;;;;;;8.48;2.97;;;3.40;99.90;;;;;;4901910;29;20127;-87
2022/03/18 01:49:19;;;;;;;7.18;3.65;;;3.40;99.90;;;;;;4901466;29;20034;-87
2022/03/18 01:51:45;;;;;;;7.47;3.20;;;3.40;99.90;;;;;;4901447;29;20033;-88
2022/03/18 01:56:55;;;;;;;10.55;3.05;;;3.30;99.90;;;;;;4903085;29;20040;-88
2022/03/18 01:59:20;;;;;;;7.10;3.25;;;3.30;99.90;;;;;;4901437;29;20040;-88
2022/03/18 02:01:46;;;;;;;4.80;2.80;;;3.30;99.90;;;;;;4901645;29;20040;-89
2022/03/18 02:04:12;;;;;;;5.45;2.85;;;3.30;99.90;;;;;;4901546;29;20036;-87
2022/03/18 02:06:40;;;;;;;6.03;3.03;;;3.30;99.90;;;;;;4901674;29;20471;-90
2022/03/18 02:09:06;;;;;;;6.47;2.97;;;3.30;99.90;;;;;;4901634;29;20460;-89
2022/03/18 02:11:32;;;;;;;8.27;3.13;;;3.20;99.90;;;;;;4886395;29;20037;-89
2022/03/18 02:13:58;;;;;;;6.65;2.58;;;3.20;99.90;;;;;;4901601;29;20656;-89
2022/03/18 02:16:24;;;;;;;7.13;3.15;;;3.20;99.90;;;;;;4903338;29;20047;-88
2022/03/18 02:18:49;;;;;;;7.10;3.38;;;3.20;99.90;;;;;;4902126;29;20048;-89
2022/03/18 02:21:15;;;;;;;7.75;3.55;;;3.20;99.90;;;;;;4885847;29;20063;-88
2022/03/18 02:23:44;;;;;;;6.93;2.85;;;3.10;99.90;;;;;;4903473;29;20153;-87
2022/03/18 02:26:13;;;;;;;7.38;3.05;;;3.10;99.90;;;;;;4903927;29;20037;-87
2022/03/18 02:28:39;;;;;;;7.57;3.25;;;3.10;99.90;;;;;;4904111;29;20044;-87
2022/03/18 02:31:05;;;;;;;6.72;2.80;;;3.00;99.90;;;;;;4902933;29;20036;-87
2022/03/18 02:33:31;;;;;;;8.10;3.08;;;3.00;99.90;;;;;;4904555;29;20395;-88
2022/03/18 02:35:56;;;;;;;7.28;3.03;;;3.00;99.90;;;;;;4901785;29;20088;-88
2022/03/18 02:38:23;;;;;;;6.82;2.40;;;3.00;99.90;;;;;;4902221;29;20061;-88
2022/03/18 02:40:49;;;;;;;6.30;2.65;;;2.90;99.90;;;;;;4904299;29;20033;-88
2022/03/18 02:43:14;;;;;;;5.60;2.60;;;2.90;99.90;;;;;;4923775;29;20031;-89
2022/03/18 02:45:40;;;;;;;7.20;2.47;;;2.80;99.90;;;;;;4923871;29;20039;-89
2022/03/18 02:48:06;;;;;;;5.60;3.00;;;2.90;99.90;;;;;;4923282;29;20043;-87
2022/03/18 02:50:32;;;;;;;9.05;2.90;;;2.90;99.90;;;;;;4924105;29;20045;-90
2022/03/18 02:52:57;;;;;;;5.80;2.60;;;2.90;99.90;;;;;;4924594;29;20028;-86
2022/03/18 02:55:23;;;;;;;5.97;2.90;;;2.90;99.90;;;;;;4925052;29;20052;-89
2022/03/18 02:57:49;;;;;;;6.32;3.17;;;2.80;99.90;;;;;;4924230;29;20020;-87
2022/03/18 03:00:16;;;;;;;7.50;2.60;;;2.80;99.90;;;;;;4924166;29;20028;-88
2022/03/18 03:02:42;;;;;;;6.30;2.60;;;2.80;99.90;;;;;;4921732;29;20024;-87
2022/03/18 03:08:01;;;;;;;6.15;2.63;;;2.80;99.90;;;;;;4914697;29;20100;-85
2022/03/18 03:10:33;;;;;;;6.38;2.47;;;2.80;99.90;;;;;;4920412;29;20049;-88
2022/03/18 03:13:03;;;;;;;7.97;2.72;;;2.70;99.90;;;;;;4915975;29;20048;-86
2022/03/18 03:15:29;;;;;;;5.32;2.60;;;2.70;99.90;;;;;;4902477;29;20374;-86
2022/03/18 03:17:55;;;;;;;5.80;2.45;;;2.70;99.90;;;;;;4902505;29;20056;-87
2022/03/18 03:20:21;;;;;;;5.43;2.35;;;2.70;99.90;;;;;;4901473;29;20029;-87
2022/03/18 03:22:47;;;;;;;5.35;2.17;;;2.70;99.90;;;;;;4901483;29;20151;-87
2022/03/18 03:25:12;;;;;;;5.35;2.75;;;2.70;99.90;;;;;;4901127;29;20044;-86
2022/03/18 03:27:38;;;;;;;5.85;2.20;;;2.70;99.90;;;;;;4901143;29;20505;-87
2022/03/18 03:30:08;;;;;;;5.22;2.17;;;2.60;99.90;;;;;;4900828;29;20032;-88
2022/03/18 03:32:35;;;;;;;5.65;2.53;;;2.60;99.90;;;;;;4901279;29;20099;-87
2022/03/18 03:35:00;;;;;;;6.57;2.30;;;2.60;99.90;;;;;;4901251;29;20033;-87
2022/03/18 03:37:27;;;;;;;4.38;2.20;;;2.60;99.90;;;;;;4903772;29;20044;-87
2022/03/18 03:39:53;;;;;;;7.43;2.88;;;2.60;99.90;;;;;;4904162;29;20033;-88
2022/03/18 03:42:19;;;;;;;4.97;2.50;;;2.60;99.90;;;;;;4888407;29;20043;-87
2022/03/18 03:44:45;;;;;;;5.30;2.13;;;2.60;99.90;;;;;;4906426;29;20046;-87
2022/03/18 03:47:12;;;;;;;6.15;2.42;;;2.60;99.90;;;;;;4905904;29;20040;-87
2022/03/18 03:49:38;;;;;;;6.60;2.67;;;2.50;99.90;;;;;;4903826;29;20112;-87
2022/03/18 03:52:04;;;;;;;6.57;2.08;;;2.50;99.90;;;;;;4902649;29;20043;-87
2022/03/18 03:54:29;;;;;;;5.05;2.10;;;2.50;99.90;;;;;;4901939;29;20040;-86
2022/03/18 03:56:56;;;;;;;5.28;2.50;;;2.50;99.90;;;;;;4905177;29;20112;-86
2022/03/18 03:59:22;;;;;;;5.68;2.60;;;2.50;99.90;;;;;;4904192;29;20037;-86
2022/03/18 04:01:48;;;;;;;8.23;2.85;;;2.50;99.90;;;;;;4901368;29;20497;-88
2022/03/18 04:04:13;;;;;;;6.80;2.72;;;2.50;99.90;;;;;;4901561;29;20044;-88
2022/03/18 04:06:39;;;;;;;6.68;2.28;;;2.40;99.90;;;;;;4885322;29;20037;-88
2022/03/18 04:09:05;;;;;;;4.30;2.22;;;2.40;99.90;;;;;;4901285;29;20056;-89
2022/03/18 04:11:31;;;;;;;6.43;2.35;;;2.40;99.90;;;;;;4906044;29;20029;-87
2022/03/18 04:13:57;;;;;;;5.18;1.70;;;2.40;99.90;;;;;;4904353;29;20039;-87
2022/03/18 04:16:22;;;;;;;5.70;2.22;;;2.40;99.90;;;;;;4904097;29;20078;-87
2022/03/18 04:18:48;;;;;;;4.75;2.17;;;2.40;99.90;;;;;;4902489;29;20037;-88
2022/03/18 04:21:14;;;;;;;6.30;2.17;;;2.40;99.90;;;;;;4900733;29;20036;-88
2022/03/18 04:23:41;;;;;;;4.25;2.13;;;2.40;99.90;;;;;;4899321;29;20131;-86
2022/03/18 04:26:07;;;;;;;5.93;2.53;;;2.40;99.90;;;;;;4899286;29;20037;-87
2022/03/18 04:28:32;;;;;;;5.22;2.10;;;2.40;99.90;;;;;;4900302;29;20033;-87
2022/03/18 04:30:58;;;;;;;2.65;1.65;;;2.40;99.90;;;;;;4899750;29;20131;-87
2022/03/18 04:33:24;;;;;;;4.05;1.80;;;2.40;99.90;;;;;;4898642;29;20145;-87
2022/03/18 04:35:51;;;;;;;7.57;2.03;;;2.40;99.90;;;;;;4900205;29;20064;-87
2022/03/18 04:38:17;;;;;;;4.75;1.83;;;2.40;99.90;;;;;;4899993;29;20041;-88
2022/03/18 04:40:43;;;;;;;4.68;2.30;;;2.40;99.90;;;;;;4883156;29;20428;-87
2022/03/18 04:43:09;;;;;;;3.38;1.60;;;2.40;99.90;;;;;;4899874;29;20076;-88
2022/03/18 04:45:36;;;;;;;3.85;1.80;;;2.30;99.90;;;;;;4897974;29;20040;-88
2022/03/18 04:48:02;;;;;;;5.43;2.00;;;2.30;99.90;;;;;;4898792;29;20033;-88
2022/03/18 04:50:28;;;;;;;4.15;2.08;;;2.40;99.90;;;;;;4899418;29;20049;-87
2022/03/18 04:52:55;;;;;;;4.28;2.22;;;2.30;99.90;;;;;;4898718;29;20363;-87
2022/03/18 04:55:20;;;;;;;5.43;2.08;;;2.30;99.90;;;;;;4899513;29;20482;-87
2022/03/18 04:57:46;;;;;;;5.32;2.20;;;2.30;99.90;;;;;;4898441;29;20100;-88
2022/03/18 05:00:13;;;;;;;9.18;3.40;;;2.30;99.90;;;;;;4898410;29;20513;-87
2022/03/18 05:02:39;;;;;;;4.65;2.20;;;2.30;99.90;;;;;;4898754;29;20033;-87
2022/03/18 05:05:08;;;;;;;4.35;2.13;;;2.30;99.90;;;;;;4898546;29;20044;-86
2022/03/18 05:07:35;;;;;;;5.88;2.00;;;2.30;99.90;;;;;;4898794;29;20056;-87
2022/03/18 05:10:00;;;;;;;5.70;2.30;;;2.20;99.90;;;;;;4899699;29;20059;-87
2022/03/18 05:12:29;;;;;;;5.72;2.17;;;2.20;99.90;;;;;;4898519;29;20032;-87
2022/03/18 05:14:54;;;;;;;4.53;2.20;;;2.10;99.90;;;;;;4882888;29;20100;-87
2022/03/18 05:17:20;;;;;;;3.85;2.00;;;2.10;99.90;;;;;;4898423;29;20025;-87
2022/03/18 05:19:46;;;;;;;4.05;1.80;;;2.10;99.90;;;;;;4898762;29;20064;-88
2022/03/18 05:22:11;;;;;;;6.80;2.25;;;2.10;99.90;;;;;;4900518;29;20029;-86
2022/03/18 05:24:37;;;;;;;6.15;2.10;;;2.10;99.90;;;;;;4899404;29;20502;-86
2022/03/18 05:27:04;;;;;;;5.20;2.20;;;2.10;99.90;;;;;;4898353;29;20044;-86
2022/03/18 05:29:30;;;;;;;3.72;1.67;;;2.10;99.90;;;;;;4903002;29;20044;-87
2022/03/18 05:31:57;;;;;;;5.63;2.30;;;2.10;99.90;;;;;;4885422;29;20025;-87
2022/03/18 05:34:23;;;;;;;5.18;2.20;;;2.10;99.90;;;;;;4898272;29;20059;-88
2022/03/18 05:36:49;;;;;;;6.10;2.83;;;2.10;99.90;;;;;;4883437;29;20099;-88
2022/03/18 05:39:15;;;;;;;4.38;2.30;;;2.10;99.90;;;;;;4900615;29;20040;-88
2022/03/18 05:41:43;;;;;;;3.83;2.28;;;2.00;99.90;;;;;;4888684;29;20040;-88
2022/03/18 05:44:09;;;;;;;6.22;2.50;;;2.00;99.90;;;;;;4885479;29;20041;-86
2022/03/18 05:46:35;;;;;;;4.28;2.13;;;2.00;99.90;;;;;;4885687;29;20033;-87
2022/03/18 05:49:00;;;;;;;3.90;2.03;;;1.90;99.90;;;;;;4900237;29;20048;-87
2022/03/18 05:51:27;;;;;;;6.00;2.40;;;2.00;99.90;;;;;;4899266;29;20033;-88
2022/03/18 05:53:53;;;;;;;6.45;2.42;;;2.00;99.90;;;;;;4882458;29;20040;-88
2022/03/18 05:59:07;;;;;;;6.45;2.63;;;2.00;99.90;;;;;;4903114;29;20047;-87
2022/03/18 06:01:37;;;;;;;6.25;2.75;;;2.00;99.90;;;;;;4902742;29;20491;-87
2022/03/18 06:04:04;;;;;;;5.53;2.35;;;2.00;99.90;;;;;;4886193;29;20048;-88
2022/03/18 06:06:30;;;;;;;5.32;2.33;;;2.00;99.90;;;;;;4886244;29;20029;-88
2022/03/18 06:11:51;;;;;;;6.05;2.28;;;2.00;99.90;;;;;;4903182;29;20048;-87
2022/03/18 06:14:27;;;;;;;6.38;2.72;;;2.10;99.90;;;;;;4887521;29;20041;-89
2022/03/18 06:16:55;;;;;;;6.40;2.90;;;2.00;99.90;;;;;;4884400;29;20083;-86
2022/03/18 06:19:22;;;;;;;5.15;2.40;;;2.10;99.90;;;;;;4883096;29;20066;-89
2022/03/18 06:21:48;;;;;;;8.13;2.72;;;2.10;99.90;;;;;;4883297;29;20032;-87
2022/03/18 06:24:15;;;;;;;5.72;2.65;;;2.10;99.90;;;;;;4883725;29;20601;-87
2022/03/18 06:26:41;;;;;;;7.65;2.50;;;2.10;99.90;;;;;;4883111;29;20025;-87
2022/03/18 06:29:08;;;;;;;5.15;2.58;;;2.10;99.90;;;;;;4899853;29;20041;-86
2022/03/18 06:31:34;;;;;;;5.90;2.72;;;2.10;99.90;;;;;;4883901;29;20021;-89
2022/03/18 06:34:00;;;;;;;5.15;2.45;;;2.10;99.90;;;;;;4883662;29;20029;-87
2022/03/18 06:36:26;;;;;;;3.47;2.33;;;2.20;99.90;;;;;;4884434;29;20044;-88
2022/03/18 06:38:52;;;;;;;4.70;2.38;;;2.20;99.90;;;;;;4885315;29;20052;-88
2022/03/18 06:41:19;;;;;;;5.30;2.55;;;2.30;99.90;;;;;;4900216;29;20502;-89
2022/03/18 06:43:46;;;;;;;5.25;2.20;;;2.40;99.90;;;;;;4885112;29;20033;-87
2022/03/18 06:46:12;;;;;;;5.97;2.78;;;2.40;99.90;;;;;;4884782;29;20068;-87
2022/03/18 06:48:38;;;;;;;4.28;2.45;;;2.40;99.90;;;;;;4900720;29;20478;-88
2022/03/18 06:51:04;;;;;;;4.78;2.42;;;2.50;99.90;;;;;;4884915;29;20040;-87
2022/03/18 06:53:31;;;;;;;6.40;2.45;;;2.50;99.90;;;;;;4900875;29;20065;-87
2022/03/18 06:55:56;;;;;;;5.75;2.75;;;2.60;99.90;;;;;;4900067;29;20039;-87
2022/03/18 06:58:22;;;;;;;5.15;2.58;;;2.70;99.90;;;;;;4899692;29;20554;-88
2022/03/18 07:00:49;;;;;;;6.03;2.50;;;2.70;99.90;;;;;;4901238;29;20060;-86
2022/03/18 07:03:14;;;;;;;4.10;2.38;;;2.80;99.90;;;;;;4900011;29;20841;-89
2022/03/18 07:05:40;;;;;;;4.70;2.40;;;2.90;99.90;;;;;;4900583;29;20041;-89
2022/03/18 07:08:06;;;;;;;5.65;2.70;;;3.10;99.90;;;;;;4899592;29;20525;-88
2022/03/18 07:10:31;;;;;;;6.55;2.75;;;3.10;99.90;;;;;;4884388;29;20056;-88
2022/03/18 07:12:57;;;;;;;6.90;2.83;;;3.20;99.90;;;;;;4900774;29;20036;-88
2022/03/18 07:15:23;;;;;;;5.85;2.60;;;3.40;99.90;;;;;;4899788;29;20131;-87
2022/03/18 07:18:02;;;;;;;4.15;2.40;;;3.50;99.90;;;;;;4883965;29;20131;-87
2022/03/18 07:20:34;;;;;;;5.53;2.33;;;3.60;99.90;;;;;;4899892;29;20478;-87
2022/03/18 07:22:59;;;;;;;5.68;2.53;;;3.80;99.90;;;;;;4883028;29;20159;-88
2022/03/18 07:25:25;;;;;;;4.93;2.40;;;3.90;99.90;;;;;;4886429;29;20069;-87
2022/03/18 07:27:51;;;;;;;8.38;3.85;;;4.00;99.90;;;;;;4900323;29;20040;-86
2022/03/18 07:30:16;;;;;;;7.82;2.92;;;4.20;99.90;;;;;;4883537;29;20040;-89
2022/03/18 07:32:42;;;;;;;8.75;3.80;;;4.30;99.90;;;;;;4865363;29;20032;-87
2022/03/18 07:35:10;;;;;;;6.80;3.00;;;4.40;99.90;;;;;;4864112;29;20048;-86
2022/03/18 07:37:39;;;;;;;7.15;3.00;;;4.50;99.90;;;;;;4881700;29;20552;-87
2022/03/18 07:40:05;;;;;;;6.50;2.92;;;4.70;99.90;;;;;;4864576;29;20144;-87
2022/03/18 07:42:42;;;;;;;6.70;2.90;;;4.80;99.90;;;;;;4879036;29;20081;-88
2022/03/18 07:45:10;;;;;;;6.95;3.30;;;5.00;99.90;;;;;;4878828;29;20059;-88
2022/03/18 07:47:35;;;;;;;6.15;2.88;;;5.10;99.90;;;;;;4866868;29;20038;-88
2022/03/18 07:50:01;;;;;;;5.40;2.60;;;5.30;99.90;;;;;;4861555;29;20102;-88
2022/03/18 07:52:26;;;;;;;5.47;2.70;;;5.40;99.90;;;;;;4860942;29;20038;-89
2022/03/18 07:54:52;;;;;;;6.65;3.00;;;5.50;99.90;;;;;;4861013;29;20045;-88
2022/03/18 07:57:18;;;;;;;8.77;3.10;;;5.50;99.90;;;;;;4860931;29;20037;-89
2022/03/18 07:59:43;;;;;;;11.07;4.28;;;5.60;99.90;;;;;;4870457;29;20040;-88
2022/03/18 08:02:09;;;;;;;10.70;4.18;;;5.70;99.90;;;;;;4870240;29;20038;-88
2022/03/18 08:04:36;;;;;;;9.02;3.67;;;5.80;99.90;;;;;;4862575;29;20049;-88
2022/03/18 08:07:03;;;;;;;8.73;4.20;;;5.90;99.90;;;;;;4863783;29;20037;-88
2022/03/18 08:09:29;;;;;;;9.07;4.00;;;5.90;99.90;;;;;;4864133;29;20052;-88
2022/03/18 08:11:55;;;;;;;7.38;3.70;;;6.10;99.90;;;;;;4863185;29;20033;-89
2022/03/18 08:14:22;;;;;;;6.80;3.60;;;6.10;99.90;;;;;;4864099;29;20037;-88
2022/03/18 08:16:47;;;;;;;12.45;5.75;;;6.20;99.90;;;;;;4865543;29;20070;-90
2022/03/18 08:19:13;;;;;;;10.77;5.38;;;6.30;99.90;;;;;;4867487;29;20046;-88
2022/03/18 08:21:39;;;;;;;13.05;4.65;;;6.40;99.90;;;;;;4865459;29;20373;-88
2022/03/18 08:24:05;;;;;;;7.07;3.67;;;6.60;99.90;;;;;;4867239;29;20496;-88
2022/03/18 08:26:33;;;;;;;10.10;4.00;;;6.70;99.90;;;;;;4865527;29;20061;-88
2022/03/18 08:28:59;;;;;;;11.10;4.45;;;6.80;99.90;;;;;;4868059;29;20026;-89
2022/03/18 08:31:26;;;;;;;10.32;3.67;;;6.80;99.90;;;;;;4867686;29;20045;-88
2022/03/18 08:33:51;;;;;;;10.77;4.35;;;7.00;99.90;;;;;;4864003;29;20068;-90
2022/03/18 08:36:17;;;;;;;9.38;4.40;;;7.10;99.90;;;;;;4864279;29;20041;-87
2022/03/18 08:38:43;;;;;;;11.27;3.67;;;7.20;99.90;;;;;;4867027;29;20038;-89
2022/03/18 08:41:08;;;;;;;10.50;3.83;;;7.30;99.90;;;;;;4863191;29;20044;-88
2022/03/18 08:43:34;;;;;;;7.50;3.20;;;7.40;99.90;;;;;;4863070;29;20048;-88
2022/03/18 08:46:00;;;;;;;6.68;3.00;;;7.50;99.90;;;;;;4861986;29;20037;-88
2022/03/18 08:48:26;;;;;;;6.15;2.72;;;7.60;99.90;;;;;;4861660;29;20041;-89
2022/03/18 08:50:51;;;;;;;7.43;3.03;;;7.60;99.90;;;;;;4861807;29;20136;-89
2022/03/18 08:53:17;;;;;;;7.93;2.97;;;7.80;99.90;;;;;;4861610;29;20037;-88
2022/03/18 08:55:43;;;;;;;8.82;3.40;;;7.80;99.90;;;;;;4865048;29;20107;-88
2022/03/18 08:58:09;;;;;;;9.80;3.20;;;7.90;99.90;;;;;;4879181;29;20036;-88
2022/03/18 09:00:34;;;;;;;5.80;2.50;;;8.00;99.90;;;;;;4873047;29;20117;-89
2022/03/18 09:03:00;;;;;;;5.18;2.53;;;8.00;99.90;;;;;;4880566;29;20069;-88
2022/03/18 09:05:26;;;;;;;5.65;2.35;;;8.10;99.90;;;;;;4868495;29;20077;-87
2022/03/18 09:07:51;;;;;;;5.63;2.50;;;8.20;99.90;;;;;;4866499;29;20063;-89
2022/03/18 09:10:17;;;;;;;4.05;1.90;;;8.20;99.90;;;;;;4880002;29;20052;-86
2022/03/18 09:12:44;;;;;;;4.97;1.95;;;8.30;99.90;;;;;;4869556;29;20496;-88
2022/03/18 09:15:10;;;;;;;9.32;3.05;;;8.40;99.90;;;;;;4877705;29;20101;-87
2022/03/18 09:17:36;;;;;;;9.25;3.53;;;8.50;99.90;;;;;;4861880;29;20132;-86
2022/03/18 09:20:01;;;;;;;5.93;2.72;;;8.60;99.90;;;;;;4862912;29;20045;-87
2022/03/18 09:22:27;;;;;;;7.63;2.65;;;8.80;99.90;;;;;;4861869;29;20148;-86
2022/03/18 09:24:52;;;;;;;4.95;1.98;;;8.90;99.90;;;;;;4864157;29;20056;-88
2022/03/18 09:27:18;;;;;;;5.18;2.20;;;9.00;99.90;;;;;;4894278;29;20056;-89
2022/03/18 09:29:44;;;;;;;6.10;2.35;;;9.10;99.90;;;;;;4877250;29;20037;-87
2022/03/18 09:32:10;;;;;;;5.82;2.58;;;9.20;99.90;;;;;;4884449;29;20394;-85
2022/03/18 09:34:36;;;;;;;4.68;2.20;;;9.40;99.90;;;;;;4880897;29;20041;-86
2022/03/18 09:37:02;;;;;;;6.60;2.17;;;9.40;99.90;;;;;;4881331;29;20029;-87
2022/03/18 09:39:28;;;;;;;4.45;1.77;;;9.50;99.90;;;;;;4883147;29;20037;-87
2022/03/18 09:41:54;;;;;;;5.22;1.80;;;9.70;99.90;;;;;;4886531;29;20029;-87
2022/03/18 09:44:20;;;;;;;8.52;2.50;;;10.20;99.90;;;;;;4886099;29;20087;-88
2022/03/18 09:46:48;;;;;;;7.72;2.28;;;10.70;99.90;;;;;;4885372;29;20063;-89
2022/03/18 09:49:16;;;;;;;7.45;2.58;;;11.10;99.90;;;;;;4888343;29;20080;-89
2022/03/18 09:51:42;;;;;;;5.18;1.83;;;12.00;99.90;;;;;;4883162;29;20037;-88
2022/03/18 09:54:10;;;;;;;4.95;2.03;;;13.40;99.90;;;;;;4885792;29;20033;-90
2022/03/18 09:56:42;;;;;;;5.45;1.60;;;14.80;99.90;;;;;;4889392;29;20186;-90
2022/03/18 09:59:09;;;;;;;7.40;2.75;;;16.10;99.90;;;;;;4899573;29;20044;-93
2022/03/18 10:01:35;;;;;;;6.93;1.90;;;17.10;99.90;;;;;;4868994;29;20037;-92
2022/03/18 10:04:07;;;;;;;5.35;1.60;;;17.90;99.90;;;;;;4867184;29;20072;-90
2022/03/18 10:06:34;;;;;;;6.00;1.67;;;18.70;99.80;;;;;;4865062;29;20049;-91
2022/03/18 10:09:00;;;;;;;6.75;2.03;;;19.40;98.70;;;;;;4879775;29;20049;-89
2022/03/18 10:11:28;;;;;;;6.20;1.90;;;19.90;97.30;;;;;;4866842;29;20034;-90
2022/03/18 10:14:08;;;;;;;4.85;2.17;;;20.30;96.70;;;;;;4863854;29;20049;-89
2022/03/18 10:16:43;;;;;;;4.57;1.58;;;20.70;96.30;;;;;;4863188;29;20073;-91
2022/03/18 10:19:14;;;;;;;4.95;1.73;;;21.10;95.50;;;;;;4864359;29;20033;-92
2022/03/18 10:22:00;;;;;;;6.60;1.95;;;21.30;94.80;;;;;;4864497;29;20117;-89
2022/03/18 10:24:30;;;;;;;6.22;2.35;;;21.70;93.50;;;;;;4863915;29;20514;-92
2022/03/18 10:27:14;;;;;;;4.93;2.10;;;21.90;93.00;;;;;;4863818;29;20449;-92
2022/03/18 10:29:53;;;;;;;4.40;1.60;;;22.30;92.10;;;;;;4867075;29;20053;-89
2022/03/18 10:32:20;;;;;;;5.72;2.03;;;22.60;91.70;;;;;;4863578;29;20034;-89
2022/03/18 10:37:55;;;;;;;4.53;1.75;;;23.10;90.20;;;;;;4870742;29;20459;-92
2022/03/18 10:40:35;;;;;;;7.82;1.98;;;23.30;88.30;;;;;;4889565;29;20074;-90
2022/03/18 10:43:05;;;;;;;3.75;1.58;;;23.40;87.10;;;;;;4894807;29;20033;-88
2022/03/18 10:45:31;;;;;;;5.78;1.85;;;23.70;85.90;;;;;;4883700;29;20049;-89
2022/03/18 10:48:10;;;;;;;6.32;1.80;;;23.70;84.10;;;;;;4869715;29;20116;-88
2022/03/18 10:50:37;;;;;;;4.80;1.67;;;23.80;83.10;;;;;;4901362;29;20057;-90
2022/03/18 10:53:06;;;;;;;6.43;1.60;;;23.90;81.10;;;;;;4890415;29;20034;-92
2022/03/18 10:55:39;;;;;;;5.20;2.05;;;24.00;81.40;;;;;;4884412;29;20041;-91
2022/03/18 10:58:07;;;;;;;5.00;1.55;;;24.30;80.60;;;;;;4888942;29;20025;-90
2022/03/18 11:00:36;;;;;;;4.20;1.40;;;24.30;80.20;;;;;;4876493;29;20036;-89
2022/03/18 11:03:03;;;;;;;6.63;1.83;;;24.50;79.20;;;;;;4891091;29;20051;-88
2022/03/18 11:05:35;;;;;;;7.53;2.50;;;24.70;77.80;;;;;;4889386;29;20250;-88
2022/03/18 11:08:03;;;;;;;5.40;1.80;;;24.60;76.40;;;;;;4883036;29;20025;-89
2022/03/18 11:13:15;;;;;;;6.72;1.90;;;24.40;76.30;;;;;;4904224;29;20070;-87
2022/03/18 11:15:45;;;;;;;5.85;1.83;;;24.50;75.60;;;;;;4903237;29;20029;-89
2022/03/18 11:18:13;;;;;;;7.57;2.60;;;24.70;74.90;;;;;;4901842;29;20025;-91
2022/03/18 11:20:44;;;;;;;9.13;2.50;;;24.80;73.50;;;;;;4899190;29;20045;-91
2022/03/18 11:23:17;;;;;;;5.78;2.20;;;24.80;72.80;;;;;;4885042;29;20014;-90
2022/03/18 11:25:50;;;;;;;5.80;1.67;;;24.90;72.80;;;;;;4883005;29;20071;-89
2022/03/18 11:28:17;;;;;;;4.93;1.73;;;25.10;72.80;;;;;;4897090;29;20068;-88
2022/03/18 11:30:44;;;;;;;5.72;1.85;;;25.20;73.70;;;;;;4891358;29;20096;-89
2022/03/18 11:33:09;;;;;;;4.90;2.13;;;25.20;73.50;;;;;;4887713;29;20037;-88
2022/03/18 11:35:55;;;;;;;6.97;2.20;;;25.00;73.20;;;;;;4866167;29;20040;-91
2022/03/18 11:38:28;;;;;;;8.18;2.05;;;25.00;73.40;;;;;;4851715;29;20040;-90
2022/03/18 11:40:58;;;;;;;6.45;2.53;;;24.90;73.30;;;;;;4877100;29;20178;-90
2022/03/18 11:43:42;;;;;;;4.13;1.70;;;24.90;73.20;;;;;;4870601;29;20375;-93
2022/03/18 11:46:17;;;;;;;5.32;1.50;;;25.00;73.20;;;;;;4881833;29;20064;-91
2022/03/18 11:48:51;;;;;;;4.63;1.90;;;25.20;72.90;;;;;;4866888;29;20502;-92
2022/03/18 11:51:37;;;;;;;3.17;1.60;;;25.20;73.00;;;;;;4880561;29;20406;-92
2022/03/18 11:54:16;;;;;;;5.10;1.80;;;25.10;72.10;;;;;;4874205;29;20073;-92
2022/03/18 11:56:53;;;;;;;5.07;2.30;;;25.20;72.30;;;;;;4866300;29;20070;-91
2022/03/18 11:59:24;;;;;;;4.65;1.90;;;25.40;72.40;;;;;;4869587;29;20096;-92
2022/03/18 12:01:54;;;;;;;5.22;1.60;;;25.70;71.80;;;;;;4887149;29;20049;-91
2022/03/18 12:04:46;;;;;;;8.30;2.00;;;25.80;71.80;;;;;;4865117;29;20042;-92
2022/03/18 12:07:28;;;;;;;6.68;1.85;;;25.60;71.40;;;;;;4885029;29;20047;-90
2022/03/18 12:09:56;;;;;;;7.25;2.70;;;25.50;71.40;;;;;;4870744;29;20088;-93
2022/03/18 12:12:23;;;;;;;6.30;2.10;;;25.40;70.30;;;;;;4857442;29;20045;-90
2022/03/18 12:14:51;;;;;;;6.22;1.95;;;25.10;70.50;;;;;;4887334;29;20025;-91
2022/03/18 12:17:17;;;;;;;3.88;1.52;;;24.90;71.20;;;;;;4864242;29;20097;-91
2022/03/18 12:19:50;;;;;;;8.38;2.58;;;25.20;71.80;;;;;;4861090;29;20042;-89
2022/03/18 12:22:16;;;;;;;;;;;25.40;70.80;;;;;;4879332;29;20037;-89
2022/03/18 12:24:41;;;;;;;4.30;1.85;;;25.40;71.80;;;;;;4872897;29;20048;-89
2022/03/18 12:27:07;;;;;;;5.22;1.60;;;25.60;70.80;;;;;;4869343;29;20090;-90
2022/03/18 12:29:33;;;;;;;6.30;1.98;;;25.80;70.80;;;;;;4864276;29;20045;-90
2022/03/18 12:32:08;;;;;;;4.00;1.52;;;26.10;70.60;;;;;;4883253;29;20033;-91
2022/03/18 12:34:44;;;;;;;6.68;2.25;;;26.40;70.30;;;;;;4866713;29;20033;-93
2022/03/18 12:37:20;;;;;;;4.78;1.90;;;26.40;70.30;;;;;;4862844;29;20105;-91
2022/03/18 12:39:48;;;;;;;4.68;1.55;;;26.60;69.70;;;;;;4866376;29;20547;-93
2022/03/18 12:42:14;;;;;;;4.38;1.52;;;26.40;69.50;;;;;;4870575;29;20441;-92
2022/03/18 12:44:49;;;;;;;6.50;1.67;;;26.40;69.70;;;;;;4884981;29;20101;-92
2022/03/18 12:47:17;;;;;;;4.55;1.67;;;26.40;69.80;;;;;;4882388;29;20041;-90
2022/03/18 12:49:48;;;;;;;5.32;2.00;;;26.60;70.40;;;;;;4883981;29;20127;-91
2022/03/18 12:52:16;;;;;;;7.35;2.20;;;26.80;69.40;;;;;;4884341;29;20583;-89
2022/03/18 12:55:09;;;;;;;5.45;1.77;;;26.90;69.20;;;;;;4878325;29;20125;-91
2022/03/18 12:57:41;;;;;;;3.75;1.70;;;27.00;68.40;;;;;;4876345;29;20037;-91
2022/03/18 13:00:09;;;;;;;5.38;2.00;;;27.00;68.00;;;;;;4878954;29;20100;-91
2022/03/18 13:02:36;;;;;;;6.70;1.90;;;26.90;68.20;;;;;;4879047;29;20059;-92
2022/03/18 13:05:05;;;;;;;5.22;1.67;;;26.90;67.50;;;;;;4880491;29;20507;-90
2022/03/18 13:07:37;;;;;;;5.50;1.80;;;26.80;67.30;;;;;;4882714;29;20036;-85
2022/03/18 13:10:03;;;;;;;4.32;1.52;;;26.80;68.10;;;;;;4827613;29;1128730;-90
2022/03/18 13:12:33;;;;;;;5.20;1.40;;;26.90;68.00;;;;;;4851937;29;20049;-88
2022/03/18 13:15:11;;;;;;;4.60;1.65;;;27.00;67.20;;;;;;4860750;29;20073;-90
2022/03/18 13:17:37;;;;;;;3.95;1.60;;;27.10;67.00;;;;;;4861298;29;20038;-92
2022/03/18 13:20:03;;;;;;;4.03;1.58;;;27.00;67.60;;;;;;4861893;29;20083;-91